Grande Portogallo — IBZW — position and weather

sailwx.info

Track history (hours):
 
Tides and Currents Weather Stations Pressure Air Temp Water Temp Dewpoint Dewpoint Depression Visibility Wind Speed Wind Dir Waves Ship Positions

Grande Portogallo

Last reported at 2014-Sep-28 12:30 UTC. Time now 2014-Sep-30 23:53 UTC.
Position N 37°03' E 023°52'.

Length 176 m; draft 8.4 m.

Type: Cargo ship. MMSI: 247065500.

Date/timePositionNaut miles runAvg speedWind from/ knotsBaromVisibWave heightAir tempDewpointWater temp
2014-Sep-28 12:30N 37°03' E 023°52'1716.1
2014-Sep-28 11:26N 37°17' E 024°06'32614.0
2014-Sep-27 12:09N 40°45' E 029°29'6 0.3
2014-Sep-26 17:25N 40°44' E 029°37'1011.1
2014-Sep-26 16:33N 40°43' E 029°24'1110.9
2014-Sep-26 15:34N 40°42' E 029°10'1514.8
2014-Sep-26 14:33N 40°38' E 028°51'16 0.4
2014-Sep-25 02:14N 40°27' E 029°06'1313.0
2014-Sep-25 01:16N 40°27' E 028°49'911.8
2014-Sep-25 00:32N 40°36' E 028°45'1515.1
2014-Sep-24 23:33N 40°42' E 029°03'1514.6
2014-Sep-24 22:32N 40°45' E 029°22'1211.6
2014-Sep-24 21:32N 40°45' E 029°38'5 0.2
2014-Sep-23 18:29N 40°44' E 029°45'1313.7
2014-Sep-23 17:33N 40°45' E 029°28'1313.5
2014-Sep-23 16:33N 40°44' E 029°10'19813.2
2014-Sep-23 01:33N 39°07' E 025°24'8116.3
2014-Sep-22 20:33N 37°55' E 024°38'1616.5
2014-Sep-22 19:33N 37°40' E 024°29'1616.2
2014-Sep-22 18:33N 37°26' E 024°19'1616.0
2014-Sep-22 17:33N 37°13' E 024°07'1615.8
2014-Sep-22 16:33N 37°01' E 023°55'1615.8
2014-Sep-22 15:33N 36°48' E 023°42'1616.2
2014-Sep-22 14:33N 36°36' E 023°29'1615.9
2014-Sep-22 13:33N 36°25' E 023°16'47510.8
2014-Sep-20 17:31N 40°38' E 014°42'2412.2
2014-Sep-20 15:34N 40°30' E 014°12'23711.6
2014-Sep-19 19:14N 43°11' E 010°19'1116.8
2014-Sep-19 18:33N 43°22' E 010°15'1111.3
2014-Sep-19 17:33N 43°33' E 010°17'2 1.9
2014-Sep-19 16:31N 43°35' E 010°19'0 0.0
2014-Sep-19 15:31N 43°35' E 010°19'0 0.0
2014-Sep-19 14:28N 43°35' E 010°19'0 0.0
2014-Sep-19 13:31N 43°35' E 010°19'0 0.0
2014-Sep-19 12:31N 43°35' E 010°19'0 0.0
2014-Sep-19 11:31N 43°35' E 010°19'0 0.0
2014-Sep-19 10:31N 43°35' E 010°19'1 0.7
2014-Sep-19 09:33N 43°34' E 010°19'9 9.0
2014-Sep-19 08:33N 43°28' E 010°10'1616.0
2014-Sep-19 07:33N 43°19' E 009°52'1717.2
2014-Sep-19 06:33N 43°16' E 009°29'1716.5
2014-Sep-19 05:33N 43°14' E 009°06'8216.4
2014-Sep-19 00:33N 42°60' E 007°16'1616.2
2014-Sep-18 23:33N 42°57' E 006°54'1615.6
2014-Sep-18 22:33N 42°54' E 006°33'1615.3
2014-Sep-18 21:33N 42°54' E 006°12'1515.0
2014-Sep-18 20:33N 42°56' E 005°52'1715.3
2014-Sep-18 19:28N 43°00' E 005°30'1415.3
2014-Sep-18 18:32N 43°06' E 005°12'1414.3
2014-Sep-18 17:33N 43°16' E 004°60'10 9.8
2014-Sep-18 16:33N 43°24' E 004°51'0 0.2
2014-Sep-18 15:33N 43°24' E 004°51'0 0.0
2014-Sep-18 14:30N 43°24' E 004°51'0 0.0
2014-Sep-18 13:33N 43°24' E 004°51'0 0.0
2014-Sep-18 12:30N 43°24' E 004°51'  
Track history (hours):
 
Tides and Currents Weather Stations Pressure Air Temp Water Temp Dewpoint Dewpoint Depression Visibility Wind Speed Wind Dir Waves Ship Positions

Grande Portogallo

Last reported at 2014-Sep-28 12:30 UTC. Time now 2014-Sep-30 23:53 UTC.
Position N 37°03' E 023°52'.

Length 176 m; draft 8.4 m.

Type: Cargo ship. MMSI: 247065500.

Date/timePositionNaut miles runAvg speedWind from/ knotsBaromVisibWave heightAir tempDewpointWater temp
2014-Sep-28 12:30N 37°03' E 023°52'1716.1
2014-Sep-28 11:26N 37°17' E 024°06'32614.0
2014-Sep-27 12:09N 40°45' E 029°29'6 0.3
2014-Sep-26 17:25N 40°44' E 029°37'1011.1
2014-Sep-26 16:33N 40°43' E 029°24'1110.9
2014-Sep-26 15:34N 40°42' E 029°10'1514.8
2014-Sep-26 14:33N 40°38' E 028°51'16 0.4
2014-Sep-25 02:14N 40°27' E 029°06'1313.0
2014-Sep-25 01:16N 40°27' E 028°49'911.8
2014-Sep-25 00:32N 40°36' E 028°45'1515.1
2014-Sep-24 23:33N 40°42' E 029°03'1514.6
2014-Sep-24 22:32N 40°45' E 029°22'1211.6
2014-Sep-24 21:32N 40°45' E 029°38'5 0.2
2014-Sep-23 18:29N 40°44' E 029°45'1313.7
2014-Sep-23 17:33N 40°45' E 029°28'1313.5
2014-Sep-23 16:33N 40°44' E 029°10'19813.2
2014-Sep-23 01:33N 39°07' E 025°24'8116.3
2014-Sep-22 20:33N 37°55' E 024°38'1616.5
2014-Sep-22 19:33N 37°40' E 024°29'1616.2
2014-Sep-22 18:33N 37°26' E 024°19'1616.0
2014-Sep-22 17:33N 37°13' E 024°07'1615.8
2014-Sep-22 16:33N 37°01' E 023°55'1615.8
2014-Sep-22 15:33N 36°48' E 023°42'1616.2
2014-Sep-22 14:33N 36°36' E 023°29'1615.9
2014-Sep-22 13:33N 36°25' E 023°16'47510.8
2014-Sep-20 17:31N 40°38' E 014°42'2412.2
2014-Sep-20 15:34N 40°30' E 014°12'23711.6
2014-Sep-19 19:14N 43°11' E 010°19'1116.8
2014-Sep-19 18:33N 43°22' E 010°15'1111.3
2014-Sep-19 17:33N 43°33' E 010°17'2 1.9
2014-Sep-19 16:31N 43°35' E 010°19'0 0.0
2014-Sep-19 15:31N 43°35' E 010°19'0 0.0
2014-Sep-19 14:28N 43°35' E 010°19'0 0.0
2014-Sep-19 13:31N 43°35' E 010°19'0 0.0
2014-Sep-19 12:31N 43°35' E 010°19'0 0.0
2014-Sep-19 11:31N 43°35' E 010°19'0 0.0
2014-Sep-19 10:31N 43°35' E 010°19'1 0.7
2014-Sep-19 09:33N 43°34' E 010°19'9 9.0
2014-Sep-19 08:33N 43°28' E 010°10'1616.0
2014-Sep-19 07:33N 43°19' E 009°52'1717.2
2014-Sep-19 06:33N 43°16' E 009°29'1716.5
2014-Sep-19 05:33N 43°14' E 009°06'8216.4
2014-Sep-19 00:33N 42°60' E 007°16'1616.2
2014-Sep-18 23:33N 42°57' E 006°54'1615.6
2014-Sep-18 22:33N 42°54' E 006°33'1615.3
2014-Sep-18 21:33N 42°54' E 006°12'1515.0
2014-Sep-18 20:33N 42°56' E 005°52'1715.3
2014-Sep-18 19:28N 43°00' E 005°30'1415.3
2014-Sep-18 18:32N 43°06' E 005°12'1414.3
2014-Sep-18 17:33N 43°16' E 004°60'10 9.8
2014-Sep-18 16:33N 43°24' E 004°51'0 0.2
2014-Sep-18 15:33N 43°24' E 004°51'0 0.0
2014-Sep-18 14:30N 43°24' E 004°51'0 0.0
2014-Sep-18 13:33N 43°24' E 004°51'0 0.0
2014-Sep-18 12:30N 43°24' E 004°51'  

Dump ship's entire track history